createdAt,value
2019-06-26T00:00:41.971Z,22.44
2019-06-26T00:01:41.974Z,22.53
2019-06-26T00:02:42.001Z,22.49
2019-06-26T00:03:42.023Z,22.43
2019-06-26T00:04:42.049Z,22.52
2019-06-26T00:05:42.072Z,22.47
2019-06-26T00:06:42.099Z,22.46
2019-06-26T00:07:42.122Z,22.46
2019-06-26T00:08:42.146Z,22.51
2019-06-26T00:09:42.173Z,22.46
2019-06-26T00:10:42.197Z,22.49
2019-06-26T00:11:42.220Z,22.41
2019-06-26T00:12:42.249Z,22.44
2019-06-26T00:13:42.270Z,22.38
2019-06-26T00:14:42.297Z,22.46
2019-06-26T00:15:42.320Z,22.36
2019-06-26T00:16:42.346Z,22.43
2019-06-26T00:17:42.373Z,22.38
2019-06-26T00:18:42.474Z,22.38
2019-06-26T00:19:42.422Z,22.41
2019-06-26T00:20:42.443Z,22.43
2019-06-26T00:21:42.469Z,22.31
2019-06-26T00:22:42.498Z,22.36
2019-06-26T00:23:42.519Z,22.26
2019-06-26T00:24:42.542Z,22.33
2019-06-26T00:25:42.573Z,22.36
2019-06-26T00:26:42.590Z,22.37
2019-06-26T00:27:42.617Z,22.30
2019-06-26T00:28:42.642Z,22.31
2019-06-26T00:29:42.666Z,22.30
2019-06-26T00:30:42.693Z,22.22
2019-06-26T00:31:42.799Z,22.23
2019-06-26T00:32:42.797Z,22.19
2019-06-26T00:33:42.983Z,22.25
2019-06-26T00:34:42.857Z,22.25
2019-06-26T00:35:42.873Z,22.22
2019-06-26T00:36:42.845Z,22.22
2019-06-26T00:37:42.868Z,22.26
2019-06-26T00:38:42.888Z,22.22
2019-06-26T00:39:42.913Z,22.19
2019-06-26T00:40:42.936Z,22.16
2019-06-26T00:41:42.962Z,22.18
2019-06-26T00:42:42.991Z,22.07
2019-06-26T00:43:43.061Z,22.10
2019-06-26T00:44:43.035Z,22.15
2019-06-26T00:45:43.061Z,22.12
2019-06-26T00:46:43.094Z,22.06
2019-06-26T00:47:43.110Z,22.15
2019-06-26T00:48:43.135Z,22.08
2019-06-26T00:49:43.161Z,22.12
2019-06-26T00:50:43.183Z,22.12
2019-06-26T00:51:43.210Z,22.04
2019-06-26T00:52:43.232Z,22.07
2019-06-26T00:53:43.257Z,22.07
2019-06-26T00:54:43.282Z,22.08
2019-06-26T00:55:43.307Z,22.04
2019-06-26T00:56:43.331Z,22.03
2019-06-26T00:57:43.356Z,22.01
2019-06-26T00:58:43.381Z,22.06
2019-06-26T00:59:43.408Z,22.03
2019-06-26T01:00:43.427Z,22.01
2019-06-26T01:01:43.452Z,21.92
2019-06-26T01:02:43.541Z,21.84
2019-06-26T01:03:43.503Z,21.92
2019-06-26T01:04:43.526Z,21.89
2019-06-26T01:05:43.550Z,21.92
2019-06-26T01:06:43.577Z,21.88
2019-06-26T01:07:43.600Z,21.83
2019-06-26T01:08:43.627Z,21.83
2019-06-26T01:09:43.676Z,21.85
2019-06-26T01:10:43.673Z,21.88
2019-06-26T01:11:43.700Z,21.72
2019-06-26T01:12:43.721Z,21.83
2019-06-26T01:13:57.385Z,21.83
2019-06-26T01:14:43.773Z,21.77
2019-06-26T01:15:43.794Z,21.77
2019-06-26T01:16:43.821Z,21.75
2019-06-26T01:17:43.844Z,21.70
2019-06-26T01:18:43.870Z,21.74
2019-06-26T01:19:43.893Z,21.70
2019-06-26T01:20:43.918Z,21.66
2019-06-26T01:21:43.941Z,21.70
2019-06-26T01:22:43.979Z,21.75
2019-06-26T01:23:43.991Z,21.70
2019-06-26T01:24:44.013Z,21.65
2019-06-26T01:25:44.039Z,21.66
2019-06-26T01:26:44.063Z,21.62
2019-06-26T01:27:44.271Z,21.66
2019-06-26T01:28:44.113Z,21.59
2019-06-26T01:29:44.139Z,21.66
2019-06-26T01:30:44.163Z,21.51
2019-06-26T01:31:44.187Z,21.59
2019-06-26T01:32:44.215Z,21.60
2019-06-26T01:33:44.285Z,21.62
2019-06-26T01:34:44.257Z,21.53
2019-06-26T01:35:44.286Z,21.54
2019-06-26T01:36:44.308Z,21.59
2019-06-26T01:37:44.331Z,21.54
2019-06-26T01:38:44.359Z,21.53
2019-06-26T01:39:44.380Z,21.53
2019-06-26T01:40:44.404Z,21.53
2019-06-26T01:41:44.429Z,21.50
2019-06-26T01:42:44.453Z,21.47
2019-06-26T01:43:44.477Z,21.47
2019-06-26T01:44:44.501Z,21.48
2019-06-26T01:45:44.526Z,21.50
2019-06-26T01:46:44.549Z,21.50
2019-06-26T01:47:44.588Z,21.51
2019-06-26T01:48:44.599Z,21.50
2019-06-26T01:49:44.696Z,21.50
2019-06-26T01:50:44.698Z,21.50
2019-06-26T01:51:44.691Z,21.47
2019-06-26T01:52:44.766Z,21.54
2019-06-26T01:53:44.779Z,21.45
2019-06-26T01:54:44.765Z,21.53
2019-06-26T01:55:44.827Z,21.47
2019-06-26T01:56:44.791Z,21.38
2019-06-26T01:57:44.818Z,21.45
2019-06-26T01:58:44.841Z,21.44
2019-06-26T01:59:44.866Z,21.44
2019-06-26T02:00:44.887Z,21.47
2019-06-26T02:01:44.916Z,21.47
2019-06-26T02:02:44.943Z,21.40
2019-06-26T02:03:44.963Z,21.35
2019-06-26T02:04:44.993Z,21.37
2019-06-26T02:05:45.008Z,21.33
2019-06-26T02:06:45.036Z,21.43
2019-06-26T02:07:45.059Z,21.41
2019-06-26T02:08:45.083Z,21.30
2019-06-26T02:09:45.107Z,21.35
2019-06-26T02:10:45.131Z,21.37
2019-06-26T02:11:45.153Z,21.32
2019-06-26T02:12:45.178Z,21.33
2019-06-26T02:13:45.202Z,21.40
2019-06-26T02:14:45.226Z,21.28
2019-06-26T02:15:45.254Z,21.33
2019-06-26T02:16:45.272Z,21.30
2019-06-26T02:17:45.303Z,21.33
2019-06-26T02:18:45.321Z,21.32
2019-06-26T02:19:45.348Z,21.32
2019-06-26T02:20:45.373Z,21.29
2019-06-26T02:21:45.396Z,21.25
2019-06-26T02:22:45.421Z,21.20
2019-06-26T02:23:45.445Z,21.26
2019-06-26T02:24:45.468Z,21.23
2019-06-26T02:25:45.509Z,21.20
2019-06-26T02:26:45.516Z,21.19
2019-06-26T02:27:45.539Z,21.22
2019-06-26T02:28:45.565Z,21.22
2019-06-26T02:29:45.588Z,21.15
2019-06-26T02:30:45.613Z,21.22
2019-06-26T02:31:45.635Z,21.15
2019-06-26T02:32:45.659Z,21.17
2019-06-26T02:33:45.690Z,21.14
2019-06-26T02:34:45.707Z,21.26
2019-06-26T02:35:45.731Z,21.22
2019-06-26T02:36:45.756Z,21.13
2019-06-26T02:37:45.802Z,21.15
2019-06-26T02:38:45.804Z,21.11
2019-06-26T02:39:45.828Z,21.11
2019-06-26T02:40:45.853Z,21.15
2019-06-26T02:41:45.875Z,21.07
2019-06-26T02:42:45.902Z,21.07
2019-06-26T02:43:45.926Z,21.05
2019-06-26T02:44:53.434Z,21.05
2019-06-26T02:45:45.973Z,21.04
2019-06-26T02:46:45.997Z,21.04
2019-06-26T02:47:46.024Z,21.01
2019-06-26T02:48:46.046Z,21.05
2019-06-26T02:49:46.074Z,20.98
2019-06-26T02:50:46.092Z,20.96
2019-06-26T02:51:46.121Z,20.93
2019-06-26T02:52:46.139Z,20.93
2019-06-26T02:53:46.163Z,20.93
2019-06-26T02:54:46.190Z,20.95
2019-06-26T02:55:46.213Z,20.92
2019-06-26T02:56:46.236Z,20.90
2019-06-26T02:57:46.263Z,20.90
2019-06-26T02:58:46.302Z,20.98
2019-06-26T02:59:46.307Z,20.85
2019-06-26T03:00:46.330Z,20.93
2019-06-26T03:01:46.356Z,20.95
2019-06-26T03:02:46.381Z,20.88
2019-06-26T03:03:46.422Z,20.92
2019-06-26T03:04:46.427Z,20.89
2019-06-26T03:05:46.451Z,20.89
2019-06-26T03:06:46.475Z,20.82
2019-06-26T03:07:46.500Z,20.83
2019-06-26T03:08:46.547Z,20.83
2019-06-26T03:09:46.611Z,20.77
2019-06-26T03:10:46.602Z,20.82
2019-06-26T03:11:46.682Z,20.78
2019-06-26T03:12:46.798Z,20.78
2019-06-26T03:13:46.661Z,20.88
2019-06-26T03:14:46.666Z,20.85
2019-06-26T03:15:50.196Z,20.80
2019-06-26T03:16:46.713Z,20.82
2019-06-26T03:17:55.254Z,20.82
2019-06-26T03:18:46.763Z,20.80
2019-06-26T03:19:46.788Z,20.78
2019-06-26T03:20:46.809Z,20.82
2019-06-26T03:21:46.838Z,20.82
2019-06-26T03:22:46.859Z,20.78
2019-06-26T03:23:46.881Z,20.78
2019-06-26T03:24:46.905Z,20.88
2019-06-26T03:25:46.931Z,20.77
2019-06-26T03:26:46.962Z,20.82
2019-06-26T03:27:46.978Z,20.83
2019-06-26T03:28:47.002Z,20.82
2019-06-26T03:29:47.025Z,20.88
2019-06-26T03:30:47.051Z,20.86
2019-06-26T03:31:47.082Z,20.89
2019-06-26T03:32:47.097Z,20.90
2019-06-26T03:33:47.120Z,20.90
2019-06-26T03:34:47.153Z,20.93
2019-06-26T03:35:47.168Z,20.93
2019-06-26T03:36:47.194Z,20.92
2019-06-26T03:37:47.216Z,20.93
2019-06-26T03:38:47.241Z,20.88
2019-06-26T03:39:47.267Z,21.03
2019-06-26T03:40:47.290Z,20.93
2019-06-26T03:41:47.310Z,20.96
2019-06-26T03:42:47.372Z,20.89
2019-06-26T03:43:47.361Z,21.00
2019-06-26T03:44:47.384Z,21.04
2019-06-26T03:45:47.711Z,21.03
2019-06-26T03:46:47.432Z,20.92
2019-06-26T03:47:47.469Z,20.98
2019-06-26T03:48:47.479Z,21.01
2019-06-26T03:49:47.503Z,20.93
2019-06-26T03:50:47.535Z,20.92
2019-06-26T03:51:47.555Z,21.03
2019-06-26T03:52:47.581Z,20.93
2019-06-26T03:53:47.601Z,21.04
2019-06-26T03:54:47.624Z,21.04
2019-06-26T03:55:47.652Z,21.07
2019-06-26T03:56:47.673Z,21.05
2019-06-26T03:57:47.697Z,21.07
2019-06-26T03:58:47.720Z,21.07
2019-06-26T03:59:47.746Z,21.07
2019-06-26T04:00:47.775Z,21.07
2019-06-26T04:01:47.795Z,21.14
2019-06-26T04:02:47.818Z,21.13
2019-06-26T04:03:47.843Z,21.11
2019-06-26T04:04:47.869Z,21.14
2019-06-26T04:05:47.890Z,21.15
2019-06-26T04:06:47.933Z,21.17
2019-06-26T04:07:47.940Z,21.19
2019-06-26T04:08:47.963Z,21.14
2019-06-26T04:09:47.988Z,21.17
2019-06-26T04:10:48.011Z,21.25
2019-06-26T04:11:48.037Z,21.28
2019-06-26T04:12:48.062Z,21.19
2019-06-26T04:13:48.088Z,21.20
2019-06-26T04:14:48.106Z,21.26
2019-06-26T04:15:50.778Z,21.25
2019-06-26T04:16:48.154Z,21.26
2019-06-26T04:17:48.188Z,21.28
2019-06-26T04:18:48.204Z,21.35
2019-06-26T04:19:48.229Z,21.37
2019-06-26T04:20:48.252Z,21.29
2019-06-26T04:21:48.277Z,21.33
2019-06-26T04:22:48.299Z,21.35
2019-06-26T04:23:48.325Z,21.47
2019-06-26T04:24:48.351Z,21.48
2019-06-26T04:25:48.381Z,21.41
2019-06-26T04:26:48.409Z,21.45
2019-06-26T04:27:48.432Z,21.48
2019-06-26T04:28:48.514Z,21.54
2019-06-26T04:29:48.505Z,21.53
2019-06-26T04:30:48.569Z,21.53
2019-06-26T04:31:48.571Z,21.65
2019-06-26T04:32:48.564Z,21.66
2019-06-26T04:33:48.568Z,21.65
2019-06-26T04:34:48.598Z,21.66
2019-06-26T04:35:48.619Z,21.70
2019-06-26T04:36:48.642Z,21.75
2019-06-26T04:37:48.668Z,21.85
2019-06-26T04:38:48.688Z,21.85
2019-06-26T04:39:48.717Z,21.83
2019-06-26T04:40:48.741Z,21.88
2019-06-26T04:41:48.783Z,21.94
2019-06-26T04:42:48.791Z,21.88
2019-06-26T04:43:48.814Z,21.96
2019-06-26T04:44:48.837Z,22.06
2019-06-26T04:45:58.121Z,22.08
2019-06-26T04:46:48.888Z,22.01
2019-06-26T04:47:48.911Z,22.06
2019-06-26T04:48:48.935Z,22.12
2019-06-26T04:49:48.984Z,22.12
2019-06-26T04:50:48.985Z,22.16
2019-06-26T04:51:49.012Z,22.25
2019-06-26T04:52:49.037Z,22.21
2019-06-26T04:53:49.061Z,22.22
2019-06-26T04:54:49.091Z,22.30
2019-06-26T04:55:49.108Z,22.30
2019-06-26T04:56:49.132Z,22.30
2019-06-26T04:57:49.168Z,22.37
2019-06-26T04:58:49.184Z,22.46
2019-06-26T04:59:49.207Z,22.44
2019-06-26T05:00:49.233Z,22.44
2019-06-26T05:01:49.270Z,22.52
2019-06-26T05:02:49.281Z,22.56
2019-06-26T05:03:49.305Z,22.58
2019-06-26T05:04:49.330Z,22.58
2019-06-26T05:05:49.356Z,22.68
2019-06-26T05:06:49.380Z,22.65
2019-06-26T05:07:49.404Z,22.67
2019-06-26T05:08:49.430Z,22.80
2019-06-26T05:09:49.454Z,22.78
2019-06-26T05:10:49.481Z,22.81
2019-06-26T05:11:49.507Z,22.77
2019-06-26T05:12:49.532Z,22.88
2019-06-26T05:13:49.557Z,23.01
2019-06-26T05:14:49.580Z,22.93
2019-06-26T05:15:49.606Z,22.96
2019-06-26T05:16:49.629Z,23.02
2019-06-26T05:17:49.657Z,23.11
2019-06-26T05:18:49.680Z,23.23
2019-06-26T05:19:49.709Z,23.33
2019-06-26T05:20:49.728Z,23.37
2019-06-26T05:21:49.755Z,23.48
2019-06-26T05:22:49.784Z,23.54
2019-06-26T05:23:49.805Z,23.70
2019-06-26T05:24:49.834Z,23.89
2019-06-26T05:25:49.857Z,24.07
2019-06-26T05:26:49.885Z,24.07
2019-06-26T05:27:49.910Z,24.19
2019-06-26T05:28:49.935Z,24.34
2019-06-26T05:29:49.963Z,24.61
2019-06-26T05:30:49.988Z,24.68
2019-06-26T05:31:50.021Z,24.77
2019-06-26T05:32:50.045Z,25.06
2019-06-26T05:33:50.066Z,25.19
2019-06-26T05:34:50.095Z,25.39
2019-06-26T05:35:50.121Z,25.51
2019-06-26T05:36:50.148Z,25.66
2019-06-26T05:37:50.176Z,25.74
2019-06-26T05:38:50.203Z,25.80
2019-06-26T05:39:50.413Z,25.91
2019-06-26T05:40:50.258Z,25.95
2019-06-26T05:41:50.286Z,26.03
2019-06-26T05:42:50.313Z,26.06
2019-06-26T05:43:50.450Z,26.08
2019-06-26T05:44:50.431Z,26.13
2019-06-26T05:45:50.478Z,26.11
2019-06-26T05:46:50.471Z,26.22
2019-06-26T05:47:50.487Z,26.19
2019-06-26T05:48:50.538Z,26.22
2019-06-26T05:49:50.515Z,26.24
2019-06-26T05:50:50.538Z,26.24
2019-06-26T05:51:50.586Z,26.23
2019-06-26T05:52:50.595Z,26.26
2019-06-26T05:53:50.618Z,26.19
2019-06-26T05:54:50.644Z,26.18
2019-06-26T05:55:50.671Z,26.22
2019-06-26T05:56:50.703Z,26.23
2019-06-26T05:57:50.724Z,26.22
2019-06-26T05:58:50.752Z,26.24
2019-06-26T05:59:50.783Z,26.29
2019-06-26T06:00:50.805Z,26.26
2019-06-26T06:01:50.832Z,26.31
2019-06-26T06:02:53.743Z,26.24
2019-06-26T06:03:50.891Z,26.22
2019-06-26T06:04:50.915Z,26.31
2019-06-26T06:05:50.943Z,26.29
2019-06-26T06:06:50.967Z,26.29
2019-06-26T06:07:51.018Z,26.27
2019-06-26T06:08:51.023Z,26.33
2019-06-26T06:09:51.050Z,26.34
2019-06-26T06:10:51.085Z,26.41
2019-06-26T06:11:51.109Z,26.48
2019-06-26T06:12:51.131Z,26.44
2019-06-26T06:13:51.156Z,26.49
2019-06-26T06:14:51.189Z,26.55
2019-06-26T06:15:51.214Z,26.51
2019-06-26T06:16:51.240Z,26.61
2019-06-26T06:17:51.271Z,26.59
2019-06-26T06:18:51.327Z,26.70
2019-06-26T06:19:51.324Z,26.68
2019-06-26T06:20:51.351Z,26.73
2019-06-26T06:21:51.378Z,26.92
2019-06-26T06:22:51.406Z,26.98
2019-06-26T06:23:51.436Z,27.19
2019-06-26T06:24:51.462Z,27.28
2019-06-26T06:25:51.488Z,27.45
2019-06-26T06:26:51.531Z,27.67
2019-06-26T06:27:51.547Z,27.78
2019-06-26T06:28:51.575Z,28.01
2019-06-26T06:29:51.606Z,28.16
2019-06-26T06:30:51.636Z,28.40
2019-06-26T06:31:51.669Z,28.56
2019-06-26T06:32:51.696Z,28.70
2019-06-26T06:33:51.725Z,28.71
2019-06-26T06:34:51.774Z,28.90
2019-06-26T06:35:51.787Z,29.07
2019-06-26T06:36:51.817Z,29.24
2019-06-26T06:37:51.862Z,29.37
2019-06-26T06:38:51.885Z,29.49
2019-06-26T06:39:51.910Z,29.69
2019-06-26T06:40:51.942Z,29.89
2019-06-26T06:41:51.998Z,29.94
2019-06-26T06:42:52.006Z,30.16
2019-06-26T06:43:52.036Z,30.27
2019-06-26T06:44:52.108Z,30.33
2019-06-26T06:45:52.099Z,30.76
2019-06-26T06:47:03.282Z,30.81
2019-06-26T06:47:52.164Z,31.02
2019-06-26T06:48:52.196Z,31.11
2019-06-26T06:49:52.232Z,31.37
2019-06-26T06:50:52.333Z,31.51
2019-06-26T06:51:52.348Z,31.69
2019-06-26T06:52:52.398Z,31.90
2019-06-26T06:53:52.400Z,32.08
2019-06-26T06:54:52.398Z,32.27
2019-06-26T06:55:52.434Z,32.45
2019-06-26T06:56:52.464Z,32.64
2019-06-26T06:57:52.498Z,32.81
2019-06-26T06:58:52.533Z,33.05
2019-06-26T06:59:52.568Z,33.19
2019-06-26T07:00:52.599Z,33.32
2019-06-26T07:01:52.635Z,33.55
2019-06-26T07:02:52.673Z,33.65
2019-06-26T07:03:52.709Z,33.72
2019-06-26T07:04:52.744Z,33.85
2019-06-26T07:05:52.778Z,34.04
2019-06-26T07:06:52.891Z,34.24
2019-06-26T07:07:52.851Z,34.35
2019-06-26T07:08:52.883Z,34.55
2019-06-26T07:09:52.927Z,34.62
2019-06-26T07:10:52.957Z,34.78
2019-06-26T07:11:52.991Z,34.93
2019-06-26T07:12:53.036Z,35.08
2019-06-26T07:13:53.059Z,35.19
2019-06-26T07:14:53.098Z,35.34
2019-06-26T07:15:53.135Z,35.53
2019-06-26T07:16:53.172Z,35.74
2019-06-26T07:17:53.208Z,35.63
2019-06-26T07:18:53.252Z,35.87
2019-06-26T07:19:53.284Z,35.98
2019-06-26T07:20:53.319Z,36.03
2019-06-26T07:21:53.356Z,36.16
2019-06-26T07:22:53.393Z,36.18
2019-06-26T07:23:53.437Z,36.36
2019-06-26T07:24:53.465Z,36.39
2019-06-26T07:25:53.504Z,36.59
2019-06-26T07:26:53.548Z,36.76
2019-06-26T07:27:53.639Z,36.78
2019-06-26T07:28:53.614Z,36.84
2019-06-26T07:29:53.654Z,36.94
2019-06-26T07:30:53.697Z,37.11
2019-06-26T07:31:53.731Z,37.16
2019-06-26T07:32:53.766Z,37.21
2019-06-26T07:33:55.782Z,37.29
2019-06-26T07:34:53.845Z,37.33
2019-06-26T07:35:53.881Z,37.54
2019-06-26T07:36:53.921Z,37.64
2019-06-26T07:37:53.959Z,37.80
2019-06-26T07:38:54.002Z,37.90
2019-06-26T07:39:58.738Z,37.90
2019-06-26T07:40:54.075Z,37.94
2019-06-26T07:41:54.117Z,38.07
2019-06-26T07:42:54.153Z,38.19
2019-06-26T07:43:54.273Z,38.17
2019-06-26T07:44:54.278Z,38.32
2019-06-26T07:45:54.364Z,38.41
2019-06-26T07:46:54.338Z,38.48
2019-06-26T07:47:54.355Z,38.51
2019-06-26T07:48:57.322Z,38.62
2019-06-26T07:49:54.432Z,38.65
2019-06-26T07:50:54.466Z,38.77
2019-06-26T07:51:54.506Z,38.85
2019-06-26T07:52:54.544Z,38.81
2019-06-26T07:53:54.599Z,38.95
2019-06-26T07:54:54.633Z,39.08
2019-06-26T07:55:54.684Z,39.15
2019-06-26T07:56:54.709Z,39.19
2019-06-26T07:57:54.744Z,39.22
2019-06-26T07:58:54.811Z,39.33
2019-06-26T07:59:54.875Z,39.41
2019-06-26T08:00:54.877Z,39.49
2019-06-26T08:01:54.908Z,39.60
2019-06-26T08:02:54.946Z,39.49
2019-06-26T08:03:54.986Z,39.61
2019-06-26T08:04:55.035Z,39.57
2019-06-26T08:05:55.067Z,39.61
2019-06-26T08:06:55.109Z,39.61
2019-06-26T08:07:55.163Z,39.63
2019-06-26T08:08:55.225Z,39.71
2019-06-26T08:09:55.230Z,39.70
2019-06-26T08:10:55.272Z,39.68
2019-06-26T08:11:55.380Z,39.75
2019-06-26T08:12:55.356Z,39.86
2019-06-26T08:13:55.429Z,39.86
2019-06-26T08:14:55.434Z,39.93
2019-06-26T08:15:55.477Z,39.80
2019-06-26T08:16:55.517Z,39.93
2019-06-26T08:18:00.622Z,39.89
2019-06-26T08:18:55.602Z,39.93
2019-06-26T08:19:55.637Z,40.04
2019-06-26T08:21:11.443Z,40.04
2019-06-26T08:21:55.722Z,40.17
2019-06-26T08:22:55.761Z,40.24
2019-06-26T08:23:55.806Z,40.32
2019-06-26T08:24:55.845Z,40.32
2019-06-26T08:25:55.886Z,40.40
2019-06-26T08:26:55.928Z,40.55
2019-06-26T08:27:55.989Z,40.67
2019-06-26T08:28:56.016Z,40.69
2019-06-26T08:29:56.053Z,40.81
2019-06-26T08:30:56.094Z,40.86
2019-06-26T08:31:56.215Z,40.85
2019-06-26T08:32:56.218Z,40.92
2019-06-26T08:33:56.271Z,40.99
2019-06-26T08:34:56.284Z,40.99
2019-06-26T08:35:56.304Z,41.08
2019-06-26T08:36:56.345Z,41.04
2019-06-26T08:38:09.929Z,41.15
2019-06-26T08:38:56.431Z,41.30
2019-06-26T08:39:56.474Z,41.42
2019-06-26T08:40:56.515Z,41.39
2019-06-26T08:41:56.558Z,41.52
2019-06-26T08:42:56.599Z,41.51
2019-06-26T08:43:56.642Z,41.48
2019-06-26T08:44:56.684Z,41.55
2019-06-26T08:45:56.725Z,41.49
2019-06-26T08:46:56.770Z,41.61
2019-06-26T08:47:56.813Z,41.76
2019-06-26T08:48:56.858Z,41.71
2019-06-26T08:49:56.905Z,41.81
2019-06-26T08:50:56.941Z,41.76
2019-06-26T08:51:56.983Z,41.88
2019-06-26T08:52:57.029Z,41.90
2019-06-26T08:53:57.075Z,41.95
2019-06-26T08:54:57.115Z,42.03
2019-06-26T08:55:57.158Z,41.99
2019-06-26T08:56:57.201Z,42.14
2019-06-26T08:57:57.243Z,42.15
2019-06-26T08:58:57.291Z,42.10
2019-06-26T08:59:57.328Z,42.24
2019-06-26T09:00:57.375Z,42.27
2019-06-26T09:01:57.423Z,42.24
2019-06-26T09:02:57.459Z,42.25
2019-06-26T09:03:57.504Z,42.36
2019-06-26T09:04:57.547Z,42.46
2019-06-26T09:05:57.591Z,42.51
2019-06-26T09:06:57.631Z,42.52
2019-06-26T09:07:57.709Z,42.53
2019-06-26T09:08:57.720Z,42.41
2019-06-26T09:09:57.762Z,42.53
2019-06-26T09:10:57.858Z,42.62
2019-06-26T09:11:57.851Z,42.70
2019-06-26T09:12:57.895Z,42.71
2019-06-26T09:13:57.938Z,42.84
2019-06-26T09:14:57.983Z,42.77
2019-06-26T09:15:58.024Z,42.84
2019-06-26T09:16:58.089Z,42.82
2019-06-26T09:17:58.158Z,42.77
2019-06-26T09:18:58.217Z,42.84
2019-06-26T09:19:58.257Z,42.84
2019-06-26T09:20:58.247Z,42.92
2019-06-26T09:21:58.287Z,42.81
2019-06-26T09:22:58.332Z,42.86
2019-06-26T09:23:58.385Z,42.90
2019-06-26T09:24:58.421Z,42.97
2019-06-26T09:25:58.468Z,43.00
2019-06-26T09:26:58.512Z,43.11
2019-06-26T09:27:58.555Z,43.08
2019-06-26T09:28:58.597Z,43.18
2019-06-26T09:29:58.643Z,43.28
2019-06-26T09:30:58.686Z,43.19
2019-06-26T09:31:58.732Z,43.22
2019-06-26T09:32:58.778Z,43.09
2019-06-26T09:33:58.822Z,43.18
2019-06-26T09:34:58.868Z,43.24
2019-06-26T09:35:58.911Z,43.38
2019-06-26T09:36:58.956Z,43.34
2019-06-26T09:37:59.007Z,43.38
2019-06-26T09:38:59.047Z,43.43
2019-06-26T09:39:59.091Z,43.41
2019-06-26T09:40:59.188Z,43.39
2019-06-26T09:41:59.178Z,43.43
2019-06-26T09:42:59.226Z,43.35
2019-06-26T09:43:59.272Z,43.57
2019-06-26T09:44:59.319Z,43.39
2019-06-26T09:45:59.359Z,43.51
2019-06-26T09:46:59.404Z,43.53
2019-06-26T09:47:59.452Z,43.47
2019-06-26T09:48:59.501Z,43.54
2019-06-26T09:49:59.591Z,43.65
2019-06-26T09:50:59.586Z,43.94
2019-06-26T09:51:59.627Z,43.88
2019-06-26T09:52:59.675Z,44.02
2019-06-26T09:53:59.718Z,44.10
2019-06-26T09:54:59.771Z,44.13
2019-06-26T09:55:59.810Z,44.19
2019-06-26T09:56:59.859Z,44.23
2019-06-26T09:57:59.911Z,44.28
2019-06-26T09:58:59.944Z,44.35
2019-06-26T09:59:59.996Z,44.41
2019-06-26T10:01:00.115Z,44.45
2019-06-26T10:02:00.162Z,44.64
2019-06-26T10:03:00.171Z,44.65
2019-06-26T10:04:00.181Z,44.80
2019-06-26T10:05:00.219Z,44.79
2019-06-26T10:06:00.266Z,44.89
2019-06-26T10:07:00.323Z,44.94
2019-06-26T10:08:00.371Z,44.92
2019-06-26T10:09:00.403Z,45.06
2019-06-26T10:10:00.452Z,45.16
2019-06-26T10:11:00.498Z,45.23
2019-06-26T10:12:00.547Z,45.29
2019-06-26T10:13:00.588Z,45.36
2019-06-26T10:14:00.633Z,45.48
2019-06-26T10:15:00.680Z,45.56
2019-06-26T10:16:00.856Z,45.54
2019-06-26T10:17:00.787Z,45.69
2019-06-26T10:18:00.818Z,45.64
2019-06-26T10:19:09.943Z,45.77
2019-06-26T10:20:00.914Z,45.80
2019-06-26T10:21:00.962Z,45.92
2019-06-26T10:22:01.002Z,45.95
2019-06-26T10:23:01.053Z,46.02
2019-06-26T10:24:01.280Z,46.15
2019-06-26T10:25:01.143Z,46.18
2019-06-26T10:26:01.189Z,46.22
2019-06-26T10:27:01.233Z,46.18
2019-06-26T10:28:01.282Z,46.09
2019-06-26T10:29:01.534Z,46.01
2019-06-26T10:30:01.383Z,46.02
2019-06-26T10:31:01.421Z,45.90
2019-06-26T10:32:01.468Z,45.86
2019-06-26T10:33:01.514Z,45.76
2019-06-26T10:34:01.604Z,45.85
2019-06-26T10:35:01.607Z,46.04
2019-06-26T10:36:01.656Z,46.01
2019-06-26T10:37:01.708Z,46.04
2019-06-26T10:38:01.769Z,46.15
2019-06-26T10:39:01.905Z,46.08
2019-06-26T10:40:01.836Z,46.18
2019-06-26T10:41:01.885Z,46.31
2019-06-26T10:42:01.932Z,46.46
2019-06-26T10:43:02.061Z,46.59
2019-06-26T10:44:02.060Z,46.55
2019-06-26T10:45:02.187Z,46.75
2019-06-26T10:46:02.122Z,46.69
2019-06-26T10:47:02.162Z,46.66
2019-06-26T10:48:02.217Z,46.55
2019-06-26T10:49:02.254Z,46.62
2019-06-26T10:50:02.299Z,46.74
2019-06-26T10:51:02.375Z,46.77
2019-06-26T10:52:02.402Z,46.84
2019-06-26T10:53:02.438Z,46.82
2019-06-26T10:54:02.484Z,46.88
2019-06-26T10:55:02.531Z,46.81
2019-06-26T10:56:02.577Z,46.90
2019-06-26T10:57:02.623Z,46.93
2019-06-26T10:58:02.672Z,46.92
2019-06-26T10:59:02.715Z,47.02
2019-06-26T11:00:02.762Z,47.21
2019-06-26T11:01:02.808Z,47.40
2019-06-26T11:02:02.871Z,47.38
2019-06-26T11:03:02.899Z,47.51
2019-06-26T11:04:02.948Z,47.44
2019-06-26T11:05:02.995Z,47.53
2019-06-26T11:06:03.038Z,47.64
2019-06-26T11:07:03.089Z,47.66
2019-06-26T11:08:03.137Z,47.54
2019-06-26T11:09:03.176Z,47.67
2019-06-26T11:10:03.223Z,47.61
2019-06-26T11:11:03.286Z,47.70
2019-06-26T11:12:03.317Z,47.74
2019-06-26T11:13:03.361Z,47.76
2019-06-26T11:14:03.408Z,47.86
2019-06-26T11:15:03.459Z,47.82
2019-06-26T11:16:03.511Z,47.83
2019-06-26T11:17:03.550Z,47.73
2019-06-26T11:18:03.593Z,47.70
2019-06-26T11:19:03.640Z,47.66
2019-06-26T11:20:03.697Z,47.67
2019-06-26T11:21:03.764Z,47.85
2019-06-26T11:22:03.778Z,47.95
2019-06-26T11:23:03.830Z,47.92
2019-06-26T11:24:03.896Z,47.96
2019-06-26T11:25:03.957Z,47.92
2019-06-26T11:26:04.003Z,48.14
2019-06-26T11:27:04.072Z,47.98
2019-06-26T11:28:04.065Z,48.10
2019-06-26T11:29:04.104Z,48.23
2019-06-26T11:30:04.155Z,48.27
2019-06-26T11:31:04.197Z,48.32
2019-06-26T11:32:04.245Z,48.33
2019-06-26T11:33:04.299Z,48.44
2019-06-26T11:34:04.395Z,48.51
2019-06-26T11:35:04.382Z,48.65
2019-06-26T11:36:04.429Z,48.65
2019-06-26T11:37:04.810Z,48.65
2019-06-26T11:38:04.526Z,48.77
2019-06-26T11:39:04.575Z,48.76
2019-06-26T11:40:04.617Z,48.86
2019-06-26T11:41:04.679Z,48.76
2019-06-26T11:42:04.708Z,48.95
2019-06-26T11:43:04.756Z,48.76
2019-06-26T11:44:04.802Z,48.82
2019-06-26T11:45:04.848Z,48.82
2019-06-26T11:46:04.915Z,48.86
2019-06-26T11:47:04.990Z,48.91
2019-06-26T11:48:04.992Z,48.76
2019-06-26T11:49:05.038Z,48.77
2019-06-26T11:50:05.083Z,48.77
2019-06-26T11:51:05.132Z,48.70
2019-06-26T11:52:05.175Z,48.71
2019-06-26T11:53:05.222Z,48.68
2019-06-26T11:54:05.277Z,48.60
2019-06-26T11:55:05.312Z,48.65
2019-06-26T11:56:05.367Z,48.79
2019-06-26T11:57:05.427Z,48.74
2019-06-26T11:58:05.453Z,48.85
2019-06-26T11:59:05.497Z,48.74
2019-06-26T12:00:05.710Z,48.65
2019-06-26T12:01:05.591Z,48.70
2019-06-26T12:02:05.640Z,48.58
2019-06-26T12:03:05.684Z,48.57
2019-06-26T12:04:05.731Z,48.55
2019-06-26T12:05:05.777Z,48.55
2019-06-26T12:06:17.924Z,48.63
2019-06-26T12:07:05.959Z,48.65
2019-06-26T12:08:05.960Z,48.64
2019-06-26T12:09:06.024Z,48.60
2019-06-26T12:10:06.077Z,48.65
2019-06-26T12:11:06.053Z,48.76
2019-06-26T12:12:06.099Z,48.82
2019-06-26T12:13:06.143Z,48.79
2019-06-26T12:14:06.194Z,48.74
2019-06-26T12:15:06.234Z,48.87
2019-06-26T12:16:06.282Z,48.85
2019-06-26T12:17:06.325Z,48.91
2019-06-26T12:18:06.376Z,48.91
2019-06-26T12:19:06.417Z,48.89
2019-06-26T12:20:17.731Z,48.96
2019-06-26T12:21:06.518Z,48.93
2019-06-26T12:22:06.561Z,49.05
2019-06-26T12:23:06.603Z,48.95
2019-06-26T12:24:06.652Z,48.95
2019-06-26T12:25:06.759Z,49.06
2019-06-26T12:26:06.837Z,48.99
2019-06-26T12:27:06.782Z,49.00
2019-06-26T12:28:06.831Z,48.74
2019-06-26T12:29:06.877Z,48.64
2019-06-26T12:30:06.921Z,48.63
2019-06-26T12:31:06.969Z,48.48
2019-06-26T12:32:07.015Z,48.51
2019-06-26T12:33:07.058Z,48.33
2019-06-26T12:34:07.173Z,48.15
2019-06-26T12:35:07.164Z,48.20
2019-06-26T12:36:07.199Z,48.22
2019-06-26T12:37:07.239Z,48.04
2019-06-26T12:38:07.317Z,47.94
2019-06-26T12:39:07.331Z,47.95
2019-06-26T12:40:07.379Z,47.98
2019-06-26T12:41:07.420Z,47.94
2019-06-26T12:42:07.483Z,47.94
2019-06-26T12:43:07.514Z,47.92
2019-06-26T12:44:07.556Z,47.98
2019-06-26T12:45:07.605Z,47.99
2019-06-26T12:46:07.643Z,48.08
2019-06-26T12:47:07.691Z,48.04
2019-06-26T12:48:07.738Z,48.14
2019-06-26T12:49:07.778Z,48.04
2019-06-26T12:50:07.852Z,47.98
2019-06-26T12:51:07.908Z,47.94
2019-06-26T12:52:07.966Z,47.92
2019-06-26T12:53:07.965Z,48.01